UUDD/DME METAR and TAF weather

Enter ICAO airport designator
Station Type Date Time Source
UUDD METAR 2019/07/20 19:30 UTC NOAA

UUDD 201930Z 26003MPS 240V300 9999 FEW020 17/14 Q1014 R88/CLRD70 NOSIG


Station Type Date Time Source
UUDD Decoded METAR 2019/07/20 19:30 UTC NOAA

Moscow / Domodedovo, Russia (UUDD) 55-24N 037-54E
Jul 20, 2019 - 03:30 PM EDT / 2019.07.20 1930 UTC
Wind: from the W (260 degrees) at 7 MPH (6 KT) (direction variable):0
Visibility: greater than 7 mile(s):0
Sky conditions: mostly clear
Temperature: 62 F (17 C)
Dew Point: 57 F (14 C)
Relative Humidity: 82%
Pressure (altimeter): 29.94 in. Hg (1014 hPa)
ob: UUDD 201930Z 26003MPS 240V300 9999 FEW020 17/14 Q1014 R88/CLRD70 NOSIG
cycle: 19

Station Type Date Time Source
UUDD TAF 2019/07/20 18:21 UTC NOAA

TAF UUDD 201657Z 2018/2124 24004MPS 9999 BKN012 TX23/2112Z TN14/2101Z
TEMPO 2018/2021 28009G16MPS 3100 -TSRA FEW005 BKN015CB
TEMPO 2100/2107 3100 -RA BR FEW004 OVC011
BECMG 2105/2107 30005MPS
TEMPO 2109/2118 30008G13MPS 3100 -TSRA BKN015CB

Example: see airport list